Timeline UpdatesTrip UpdatesNews PostsPvt PostsTravel TipsAdmin PostsConv PostsFollowed PostsChat RequestsBlog PostsPNR Posts

Disclaimer
Search
 
 
Fri Aug 22, 2014 21:15:27 ISTHomeTrainsΣChainsAtlasPNRForumGalleryNewsFAQTripsMembersLoginFeedback
No Recent News for this Train
Other Trains in the News **new
Latest...
Short Origination from Saharanpur on 15/6/14 #1134752
Sat Jun 14, 2014 (02:07PM)
⇐ Return Journey: Train# 15011

15012/Chandigarh-Lucknow Express

Jul 01 2013 (10:24PM)
Change Departure Station:
Change Arrival Station:
Post a Train Travel TipPost a Train Travel Tip **new
Post a Comment/Question/Picture/VideoPost a Comment/Question/Picture/Video
Pantry/Catering
✕ NO Pantry Car
✓ Catering Avbl
Dinner order taken before SRE and it supply
Loco/Rake Reversals
MZM/Muzzampur Narayan (3);
RSA - Rake Sharing
Rake/Coach Composition
Loco-SLR,UR,UR,UR,S1,S2,A1,B1,UR,UR,UR,SLR
Loco
wdm3a of lko
News    PNR    Forum    Time-Table    Availability    Fare Chart    Map    Arr/Dep History    Trips    Gallery    ΣChains    X/O    Timeline    
Travel Time: 2h 30m    3 halts    Distance: 126 km    Avg Speed: 50 km/hr
Type: Mail/Express
Zone: NER/North Eastern
Departs @ 17:05 (Avg 12m late)
Platform# 1
SMTWTFS
Chandigarh Junction/CDG 
Arrives @ 19:35 (Avg 16m late)
Platform# 3
SMTWTFS
Saharanpur Junction/SRE 

3 halts. 16 intermediate Stations between Chandigarh Junction and Saharanpur Junction

Hide intermediate Stations  Show Old Time-Table

#CodeStation NameX/OArrivesAvgDepartsAvgHaltPFDay#KmSpeedElevZoneAddress
1CDG»Chandigarh Junction (5)»  -17:05+12110.046334mNRDarua, Chandigarh
1.1GHGGhagghar (1)  17:17-17:17-  19.2 46301mNRnear silver city. distt. mohali, Punjab
1.2DHPRDappar (2)X  17:19-17:19-  111.1 46299mNRNational Highway 22, Punjab
1.3LLULalruX  17:40-17:40-  126.6 46282mNRLalru, Punjab
1.4DKTDhulkot  17:53-17:53-  136.7 46275mNRAmbala City, Haryana
2UMBAmbala Cantt. Junction (7)X  18:03+1218:08+155m1144.681278mNRAmbala 133001, Haryana
2.1DOKYDukheri (2)  18:13-18:13-  151.9 81275mNRDevsthali Rd, Haryana
2.2KESKesri (2)X  18:18-18:18-  157.8 81275mNRAmbala, Haryana
2.3TDWTandwal (2)  18:22-18:22-  164.0 81279mNRState Highway 31, Haryana
2.4RAABarara (2)  18:26-18:26-  169.4 81279mNRBarara, Haryana
2.5MFBMustafabad (2)X  18:33-18:33-  178.2 81281mNRNational Highway 73, Haryana
2.6DZPDarazpur (2)  18:39-18:39-  185.9 81276mNRYamunanagar, Haryana
3JUDWJagadhri Workshop (2)X  18:42+2518:44+252m1190.650280mNRRailway Workshop Road, Haryana
4JUDYamunanagar-Jagadhri (3)X  18:50+2218:52+262m2195.642275mNRYamunanagar, Haryana
4.1KNZKalanour (2)  19:01-19:01-  1102.1 42272mNRNational Highway 73, Haryana
4.2SSWSarsawa (2)X  19:16-19:16-  1112.5 42269mNRSaharanpur, Uttar Pradesh
4.3PKYPilkhani (2)  19:24-19:24-  1118.1 42277mNRSaharanpur, Uttar Pradesh
5SRE•Saharanpur Junction (6)•X  19:35+1620:00+1325m31125.872276mNRSaharanpur, Uttar Pradesh
5.1HNCHindan CabinX  20:05-20:05-  1131.9 72276mNRMDR 163W, Uttar Pradesh
5.2BAEBaliakheriX  20:08-20:08-  1135.8 72274mNRSaharanpur, Uttar Pradesh
5.3SNKESunehti Kharkhari (2)  20:13-20:13-  1140.8 72216mNRSunehti Kharkhr, Uttar Pradesh
5.4CDLChodialaX  20:17-20:17-  1146.4 72270mNRMDR 163W, Uttar Pradesh
5.5IQBIqbalpurX  20:23-20:23-  1153.0 72267mNRNational Highway 73, Uttar Pradesh
6RKRoorkee (3)  20:29+2320:31+252m11160.544264mNRRoorkee - 247667, Uttarakhand
6.1DNRADhandhera (2)X  20:35-20:35-  1163.3 44267mNRRoorkee - 247667, Uttarakhand
6.2LDRLandaura (2)  20:42-20:42-  1168.3 44261mNRHaridwar, Uttarakhand
6.3DSNIDausni (2)  20:48-20:48-  1173.2 44244mNRLaksar, Uttarakhand
6.4LRJCLaksar North Cabin  20:52-20:52-  1176.2 44238mNRMain Bazar Road, Uttarakhand
7LRJLaksar Junction (4)  20:55+2621:00+265m11178.278238mNRLaksar, Uttarakhand
7.1RSIRaisi  21:09-21:09-  1189.7 78231mNRLaksar, Uttarakhand
7.2BLWBalawali (2)  21:13-21:13-  1195.4 78242mNRNational Highway 119, Uttar Pradesh
7.3CNKChandok (2)X  21:19-21:19-  1202.3 78257mNRChandok, Uttar Pradesh
7.4FZLFazalpur (2)  21:24-21:24-  1209.1 78256mNRState Highway 49, Uttar Pradesh
8MZMMuzzampur Narayan (3)↵¶21:28+2521:30+542m11214.522258mNRJunction Point - NBD/LRJ/BJO, Uttar Pradesh
8.1BSKRBasi Kiratpur  21:58-21:58-  1225.1 22253mNRKiratpur, Uttar Pradesh
9BJOBijnor (3)X  22:37+3022:39+392m11239.538237mNRBijnor, Uttar Pradesh
9.1KJLUKhari Jhalu  22:55-22:55-  1249.4 38241mNRJhalu, Uttar Pradesh
10HLDRHaldaur  23:06+3923:08+392m--1256.643236mNRState Highway 76, Uttar Pradesh
10.1ARHAmhera  23:13-23:13-  1260.2 43235mNRAmhera, Uttar Pradesh
10.2SISNSisauna  23:20-23:20-  1265.1 43234mNRAkhlaspur, Uttar Pradesh
11CPSChand Siau (2)  23:33+4323:35+442m11274.645228mNRChandpur-246725, Uttar Pradesh
11.1BGRRBagarpur Halt  23:44-23:44-  1281.4 45227mNRBagarpur, Uttar Pradesh
11.2BKNABakaina Halt  23:51-23:51-  1286.5 45223mNRRusulpur Urf Khetpura, Uttar Pradesh
11.3CLKNChuchela Kalan  23:55-23:55-  1289.6 45223mNRChuchaila Kalan, Uttar Pradesh
12MNDRMandi Dhanaura  00:02+5000:04+542m12294.817219mNRJyotiba Phule Nagar, Uttar Pradesh
12.1SEPRSherpur  00:22-00:22-  2300.1 17214mNRState Highway 51, Uttar Pradesh
13GJLGajraula Junction (4)  00:57+3601:00+403m12310.276211mNRGujraula, Uttar Pradesh
13.1MHHRMahesra (2)  01:06-01:06-  2318.4 76214mNRNH 24, Uttar Pradesh
13.2KFPRKafurpurX  01:09-01:09-  2321.5 76215mNRRajabpur, Uttar Pradesh
14AMROAmroha (3)  01:18+4401:20+472m12333.046217mNRAmroha, Uttar Pradesh
14.1KIVKaialsa (2)  01:28-01:28-  2339.4 46211mNRSH 78, Uttar Pradesh
14.2CKLTChak Kali Lait (2)  01:33-01:33-  2343.2 46211mNRSH 78, Uttar Pradesh
14.3HKPHakimpur (2)X  01:38-01:38-  2346.9 46204mNRSH 78, Uttar Pradesh
14.4LDPLodipur Bishnupur (2)  01:44-01:44-  2351.2 46200mNRHarthala Station Rd, Uttar Pradesh
14.5LPBLodipur BishanpurX  01:44-01:44-  2351.3 46202mNRBishanpur, Uttar Pradesh
15MBMoradabad Junction (7)  02:00+4102:10+4610m32363.555201mNRMoradabad, Uttar Pradesh
15.1MCVMacharya  02:22-02:22-  2374.8 55195mNRKundarkhi, Uttar Pradesh
15.2FRDFarhedi  02:25-02:25-  2377.2 55201mNRMoradabad- Chandausi Rd, Uttar Pradesh
15.3KDKundarkhi  02:30-02:30-  2381.5 55198mNRKundarki, Uttar Pradesh
15.4RJKRaja Ka Sahaspur  02:36-02:36-  2387.4 55196mNRBilari, Uttar Pradesh
15.5JRJJargaon  02:42-02:42-  2393.0 55190mNRChandausi, Uttar Pradesh
15.6KZSKuakhera Halt  02:45-02:45-  2395.8 55194mNRChandausi, Uttar Pradesh
15.7GTFGumthal  02:49-02:49-  2398.6 55192mNRRaja Ka Sahaspur, Uttar Pradesh
16CHChandausi Junction (3)O  02:58+1:0303:00+1:032m--2407.344193mNRChandausi, Uttar Pradesh
16.1SSKASisarka  03:10-03:10-  2414.7 44188mNRState Highway 43, Uttar Pradesh
16.2AFRAsafpurX  03:19-03:19-  2420.9 44186mNRDist. Badaun, Uttar Pradesh
16.3PRKEPurua Khera  03:26-03:26-  2426.0 44182mNRDist. Badaun, Uttar Pradesh
16.4DUBDabtara (2)  03:33-03:33-  2431.5 44183mNRBisauli, Uttar Pradesh
16.5KEGKarengi  03:41-03:41-  2436.7 44183mNRKarengi, Uttar Pradesh
16.6RBKReoti B Khera (1)  03:50-03:50-  2443.8 44177mNRReoti B Khera, Uttar Pradesh
16.7AOAonla (2)  03:58-03:58-  2449.4 44176mNRDist. Bareilly, Uttar Pradesh
16.8NSUNisui  04:07-04:07-  2456.1 44167mNRAonla- Bareilly Link Rd, Uttar Pradesh
16.9BTGBasharatGanjX  04:14-04:14-  2460.8 44167mNRBareilly, Uttar Pradesh
16.10RSCRamganga South Cabin  04:25-04:25-  2469.2 44162mNERFaridapur Thakuran, Uttar Pradesh
16.11RGBRamganga  04:26-04:26-  2469.9 44170mNRState Highway 33, Uttar Pradesh
16.12BEBareilly Junction (4)X  04:35-04:35-  2476.4 44174mNRBareilly, Uttar Pradesh
16.13CHTIChanehti Junction  04:40-04:40-  2480.1 44168mNRBareilly, Uttar Pradesh
16.14RYSRasuriyaX  04:49-04:49-  2486.8 44174mNRNH 24, Uttar Pradesh
16.15PMRPitambarpur  05:02-05:02-  2496.2 44171mNRPitambarpur, Uttar Pradesh
16.16TSATisuaX  05:14-05:14-  2504.8 44165mNRNational Highway 24, Uttar Pradesh
16.17BLPUBilpur  05:24-05:24-  2511.8 44161mNRFatehganj, Uttar Pradesh
16.18KSRKKasrak Halt  05:33-05:33-  2518.8 44162mNRKatra, Uttar Pradesh
16.19MKMiranpur KatraX  05:34-05:34-  2519.0 44162mNRShahjahanpur, Uttar Pradesh
16.20MILAMilakpur HaltX  05:42-05:42-  2525.1 44158mNRDhanela, Uttar Pradesh
16.21TLHTilharO  05:47-05:47-  2528.7 44163mNRTilhar, Uttar Pradesh
16.22BHDHBahadurpur HaltX  05:53-05:53-  2532.9 44154mNRNH 24, Uttar Pradesh
16.23BTRABanthraX  06:00-06:00-  2538.5 44154mNRNH 24, Uttar Pradesh
17SPNShahjahanpur Junction (3)X  06:12+3106:15+323m--2546.974156mNRShahjahanpur, Uttar Pradesh
17.1SXKShahjahanpur Court  06:16-06:16-  2547.8 74160mNRShahjahanpur, Uttar Pradesh
17.2ROZARoza Junction (4)  06:21-06:21-  2554.3 74156mNRShahjahanpur, Uttar Pradesh
17.3PRPMPt Ram Prasad Bismil  06:24-06:24-  2558.5 74154mNRState Highway 25, Uttar Pradesh
17.4KHKahiliya  06:28-06:28-  2562.9 74152mNRSH 25, Uttar Pradesh
17.5AIGAlgawanX  06:35-06:35-  2571.4 74152mNRAlgawan, Uttar Pradesh
17.6AJIAnjhi Shahabad  06:40-06:40-  2577.7 74148mNRAnjhi Shahabad, Uttar Pradesh
17.7SHRMSharma  06:45-06:45-  2583.6 74150mNRSH 25, Uttar Pradesh
17.8TDPTodarpurX  06:47-06:47-  2586.2 74147mNRSH 25, Uttar Pradesh
17.9BEGBehtagokulXO  06:52-06:52-  2592.6 74152mNRBehtagokul, Uttar Pradesh
17.10KUFKaurha  06:59-06:59-  2601.5 74148mNRSH 25, Uttar Pradesh
18HRIHardoi (5)XO  07:06+3407:08+362m32609.950146mNRHardoi, Uttar Pradesh
18.1KARKarnaX  07:20-07:20-  2619.7 50143mNRHardoi, Uttar Pradesh
18.2MSTMasitX  07:29-07:29-  2627.2 50141mNRSH 25, Uttar Pradesh
18.3BGHBaghauli  07:37-07:37-  2634.2 50141mNRsharda nehar, Uttar Pradesh
18.4BLMBalamu Junction (4)X  07:48-07:48-  2642.9 50139mNRBalamau, Uttar Pradesh
18.5DLQDalelnagar  07:58-07:58-  2651.5 50136mNRSH 25, Uttar Pradesh
18.6UTAUmar Tali  08:06-08:06-  2657.9 50135mNRHardoi, Uttar Pradesh
18.7SANSandila (3)X  08:12-08:12-  2663.2 50132mNRSandila, Uttar Pradesh
18.8RBDRahimabadX  08:26-08:26-  2674.2 50132mNRSH 25, Uttar Pradesh
18.9DILDilawarnagar  08:35-08:35-  2681.8 50133mNRSH 25, Uttar Pradesh
18.10MLDMalihabadX  08:42-08:42-  2687.5 50130mNRMalihabad, Uttar Pradesh
18.11KKJKakori (3)XO  08:53-08:53-  2697.2 50129mNRSH 25, Uttar Pradesh
18.12AMGAlamnagar (3)  09:02-09:02-  2704.7 50126mNRLucknow, Uttar Pradesh
18.13LNWTLucknow West  09:09-09:09-  2710.1 50123mNRLucknow, Uttar Pradesh
19LJNLucknow Junction (6)  09:10+38-52711.0-126mNERLucknow, Uttar Pradesh
Scroll to Top
Scroll to Bottom